Time,TemperatureF,DewpointF,PressureIn,WindDirection,WindDirectionDegrees,WindSpeedMPH,WindSpeedGustMPH,Humidity,HourlyPrecipIn,Conditions,Clouds,dailyrainin,SoftwareType,DateUTC
2013-02-19 00:00:00,49.5,11.1,29.74,SSE,158,24.2,24.2,21,0.00,CLR,,0.00,WeatherDisplay:10.37,2013-02-19 05:00:00,
2013-02-19 00:01:00,49.5,11.1,29.74,SE,135,17.5,17.5,21,0.00,CLR,,0.00,WeatherDisplay:10.37,2013-02-19 05:01:00,
2013-02-19 00:06:00,49.8,11.4,29.74,SW,225,19.2,19.2,21,0.00,CLR,,0.00,WeatherDisplay:10.37,2013-02-19 05:06:00,
2013-02-19 00:11:00,48.6,10.3,29.74,SW,225,24.2,24.2,21,0.00,CLR,,0.00,WeatherDisplay:10.37,2013-02-19 05:11:00,
2013-02-19 00:16:00,47.8,12.7,29.74,South,180,20.7,20.7,24,0.00,CLR,,0.00,WeatherDisplay:10.37,2013-02-19 05:16:00,
2013-02-19 00:21:00,46.6,15.2,29.77,South,180,18.4,18.4,28,0.00,CLR,,0.00,WeatherDisplay:10.37,2013-02-19 05:21:00,
2013-02-19 00:26:00,44.8,18.8,29.77,South,180,13.8,13.8,35,0.00,CLR,,0.00,WeatherDisplay:10.37,2013-02-19 05:26:00,
2013-02-19 00:31:00,43.7,19.7,29.77,SW,225,15.0,15.0,38,0.00,CLR,,0.00,WeatherDisplay:10.37,2013-02-19 05:31:00,
2013-02-19 00:36:00,43.5,20.2,29.74,South,180,10.4,10.4,39,0.00,CLR,,0.00,WeatherDisplay:10.37,2013-02-19 05:36:00,
2013-02-19 00:41:00,43.2,21.0,29.74,South,180,7.6,7.6,41,0.00,CLR,,0.00,WeatherDisplay:10.37,2013-02-19 05:41:00,
2013-02-19 00:46:00,43.7,20.3,29.74,South,180,15.0,15.0,39,0.00,CLR,,0.00,WeatherDisplay:10.37,2013-02-19 05:46:00,
2013-02-19 00:51:00,43.9,20.5,29.74,SSW,202,23.7,23.7,39,0.00,CLR,,0.00,WeatherDisplay:10.37,2013-02-19 05:51:00,
2013-02-19 00:56:00,44.4,20.4,29.74,SSW,202,15.0,15.0,38,0.00,CLR,,0.00,WeatherDisplay:10.37,2013-02-19 05:56:00,
2013-02-19 01:01:00,44.2,20.2,29.74,South,180,15.0,15.0,38,0.00,CLR,,0.00,WeatherDisplay:10.37,2013-02-19 06:01:00,
2013-02-19 01:06:00,44.1,20.7,29.74,SSW,202,15.0,15.0,39,0.00,CLR,,0.00,WeatherDisplay:10.37,2013-02-19 06:06:00,
2013-02-19 01:11:00,43.7,20.3,29.74,SW,225,23.0,23.0,39,0.00,CLR,,0.00,WeatherDisplay:10.37,2013-02-19 06:11:00,
2013-02-19 01:16:00,43.2,21.6,29.74,South,180,15.0,15.0,42,0.00,CLR,,0.00,WeatherDisplay:10.37,2013-02-19 06:16:00,
2013-02-19 01:21:00,42.8,22.4,29.74,South,180,15.0,15.0,44,0.00,CLR,,0.00,WeatherDisplay:10.37,2013-02-19 06:21:00,
2013-02-19 01:26:00,42.4,23.6,29.74,South,180,13.8,13.8,47,0.00,CLR,,0.00,WeatherDisplay:10.37,2013-02-19 06:26:00,
2013-02-19 01:31:00,42.3,24.4,29.74,SSE,158,17.3,17.3,49,0.00,CLR,,0.00,WeatherDisplay:10.37,2013-02-19 06:31:00,
2013-02-19 01:36:00,42.3,24.9,29.71,South,180,10.4,10.4,50,0.00,CLR,,0.00,WeatherDisplay:10.37,2013-02-19 06:36:00,
2013-02-19 01:41:00,42.1,25.2,29.71,South,180,10.5,10.5,51,0.00,CLR,,0.00,WeatherDisplay:10.37,2013-02-19 06:41:00,
2013-02-19 01:46:00,42.1,25.7,29.71,SSW,202,11.5,11.5,52,0.00,CLR,,0.00,WeatherDisplay:10.37,2013-02-19 06:46:00,
2013-02-19 01:51:00,42.1,25.7,29.71,SE,135,13.2,13.2,52,0.00,CLR,,0.00,WeatherDisplay:10.37,2013-02-19 06:51:00,
2013-02-19 01:56:00,42.1,25.7,29.71,SE,135,10.0,10.0,52,0.00,CLR,,0.00,WeatherDisplay:10.37,2013-02-19 06:56:00,
2013-02-19 02:01:00,42.1,26.2,29.71,South,180,12.7,12.7,53,0.00,CLR,,0.00,WeatherDisplay:10.37,2013-02-19 07:01:00,
2013-02-19 02:06:00,41.9,26.4,29.71,SSE,158,13.8,13.8,54,0.00,CLR,,0.00,WeatherDisplay:10.37,2013-02-19 07:06:00,
2013-02-19 02:11:00,42.1,26.6,29.71,South,180,10.4,10.4,54,0.00,CLR,,0.00,WeatherDisplay:10.37,2013-02-19 07:11:00,
2013-02-19 02:16:00,42.1,26.6,29.71,SSE,158,12.7,12.7,54,0.00,CLR,,0.00,WeatherDisplay:10.37,2013-02-19 07:16:00,
2013-02-19 02:21:00,42.3,26.3,29.68,South,180,15.0,15.0,53,0.00,CLR,,0.00,WeatherDisplay:10.37,2013-02-19 07:21:00,
2013-02-19 02:26:00,42.3,26.3,29.68,South,180,16.1,16.1,53,0.00,CLR,,0.00,WeatherDisplay:10.37,2013-02-19 07:26:00,
2013-02-19 02:31:00,42.3,25.9,29.68,SSE,158,13.8,13.8,52,0.00,CLR,,0.00,WeatherDisplay:10.37,2013-02-19 07:31:00,
2013-02-19 02:36:00,42.1,26.2,29.68,SSW,202,11.5,11.5,53,0.00,CLR,,0.00,WeatherDisplay:10.37,2013-02-19 07:36:00,
2013-02-19 02:41:00,42.1,26.6,29.68,SSE,158,15.0,15.0,54,0.00,CLR,,0.00,WeatherDisplay:10.37,2013-02-19 07:41:00,
2013-02-19 02:46:00,42.1,26.6,29.68,SSE,158,11.5,11.5,54,0.00,CLR,,0.00,WeatherDisplay:10.37,2013-02-19 07:46:00,
2013-02-19 02:51:00,42.1,26.6,29.68,SSE,158,16.3,16.3,54,0.00,CLR,,0.00,WeatherDisplay:10.37,2013-02-19 07:51:00,
2013-02-19 02:56:00,42.1,25.7,29.68,SW,225,12.7,12.7,52,0.00,CLR,,0.00,WeatherDisplay:10.37,2013-02-19 07:56:00,
2013-02-19 03:01:00,42.1,25.2,29.68,SE,135,15.0,15.0,51,0.00,CLR,,0.00,WeatherDisplay:10.37,2013-02-19 08:01:00,
2013-02-19 03:06:00,42.1,25.7,29.65,South,180,17.3,17.3,52,0.00,CLR,,0.00,WeatherDisplay:10.37,2013-02-19 08:06:00,
2013-02-19 03:11:00,41.9,26.0,29.65,SE,135,13.2,13.2,53,0.00,CLR,,0.00,WeatherDisplay:10.37,2013-02-19 08:11:00,
2013-02-19 03:16:00,41.9,26.4,29.65,South,180,12.7,12.7,54,0.00,CLR,,0.00,WeatherDisplay:10.37,2013-02-19 08:16:00,
2013-02-19 03:21:00,41.7,26.7,29.65,SE,135,13.8,13.8,55,0.00,CLR,,0.00,WeatherDisplay:10.37,2013-02-19 08:21:00,
2013-02-19 03:26:00,41.7,26.7,29.65,South,180,18.4,18.4,55,0.00,CLR,,0.00,WeatherDisplay:10.37,2013-02-19 08:26:00,
2013-02-19 03:31:00,41.5,26.6,29.65,South,180,11.5,11.5,55,0.00,CLR,,0.00,WeatherDisplay:10.37,2013-02-19 08:31:00,
2013-02-19 03:36:00,41.5,26.6,29.65,SW,225,15.0,15.0,55,0.00,CLR,,0.00,WeatherDisplay:10.37,2013-02-19 08:36:00,
2013-02-19 03:42:00,41.4,25.9,29.65,SE,135,10.4,10.4,54,0.00,CLR,,0.00,WeatherDisplay:10.37,2013-02-19 08:42:00,
2013-02-19 03:47:00,41.4,25.9,29.65,SSW,202,15.0,15.0,54,0.00,CLR,,0.00,WeatherDisplay:10.37,2013-02-19 08:47:00,
2013-02-19 03:52:00,41.5,25.7,29.65,South,180,13.8,13.8,53,0.00,CLR,,0.00,WeatherDisplay:10.37,2013-02-19 08:52:00,
2013-02-19 03:57:00,41.5,25.7,29.65,SSE,158,11.5,11.5,53,0.00,CLR,,0.00,WeatherDisplay:10.37,2013-02-19 08:57:00,
2013-02-19 04:02:00,41.5,25.7,29.65,SW,225,10.4,10.4,53,0.00,CLR,,0.00,WeatherDisplay:10.37,2013-02-19 09:02:00,
2013-02-19 04:07:00,41.5,25.7,29.62,South,180,10.0,10.0,53,0.00,CLR,,0.00,WeatherDisplay:10.37,2013-02-19 09:07:00,
2013-02-19 04:12:00,41.5,25.7,29.62,South,180,8.1,9.2,53,0.00,CLR,,0.00,WeatherDisplay:10.37,2013-02-19 09:12:00,
2013-02-19 04:17:00,41.5,26.1,29.62,South,180,11.5,11.5,54,0.00,CLR,,0.00,WeatherDisplay:10.37,2013-02-19 09:17:00,
2013-02-19 04:22:00,41.9,26.0,29.62,South,180,13.8,13.8,53,0.00,CLR,,0.00,WeatherDisplay:10.37,2013-02-19 09:22:00,
2013-02-19 04:27:00,41.9,26.0,29.62,SSW,202,15.0,15.0,53,0.00,CLR,,0.00,WeatherDisplay:10.37,2013-02-19 09:27:00,
2013-02-19 04:32:00,42.1,25.7,29.62,South,180,11.5,11.5,52,0.00,CLR,,0.00,WeatherDisplay:10.37,2013-02-19 09:32:00,
2013-02-19 04:37:00,42.1,26.2,29.62,SSW,202,12.7,12.7,53,0.00,CLR,,0.00,WeatherDisplay:10.37,2013-02-19 09:37:00,
2013-02-19 04:42:00,42.3,26.3,29.62,SSE,158,15.0,15.0,53,0.00,CLR,,0.00,WeatherDisplay:10.37,2013-02-19 09:42:00,
2013-02-19 04:47:00,42.3,26.8,29.62,South,180,13.8,13.8,54,0.00,CLR,,0.00,WeatherDisplay:10.37,2013-02-19 09:47:00,
2013-02-19 04:52:00,42.3,26.8,29.62,South,180,19.6,19.6,54,0.00,CLR,,0.00,WeatherDisplay:10.37,2013-02-19 09:52:00,
2013-02-19 04:57:00,42.3,26.8,29.62,South,180,19.2,19.2,54,0.00,CLR,,0.00,WeatherDisplay:10.37,2013-02-19 09:57:00,
2013-02-19 05:02:00,42.3,26.8,29.62,South,180,15.0,15.0,54,0.00,CLR,,0.00,WeatherDisplay:10.37,2013-02-19 10:02:00,
2013-02-19 05:07:00,42.3,26.8,29.62,South,180,11.5,11.5,54,0.00,CLR,,0.00,WeatherDisplay:10.37,2013-02-19 10:07:00,
2013-02-19 05:12:00,42.3,26.8,29.62,South,180,11.5,11.5,54,0.00,CLR,,0.00,WeatherDisplay:10.37,2013-02-19 10:12:00,
2013-02-19 05:17:00,42.4,27.0,29.62,South,180,13.8,13.8,54,0.00,CLR,,0.00,WeatherDisplay:10.37,2013-02-19 10:17:00,
2013-02-19 05:22:00,42.4,26.5,29.62,SSW,202,18.4,18.4,53,0.00,CLR,,0.00,WeatherDisplay:10.37,2013-02-19 10:22:00,
2013-02-19 05:27:00,42.4,26.5,29.62,SSE,158,13.8,13.8,53,0.00,CLR,,0.00,WeatherDisplay:10.37,2013-02-19 10:27:00,
2013-02-19 05:32:00,42.4,26.0,29.62,SSW,202,15.0,15.0,52,0.00,CLR,,0.00,WeatherDisplay:10.37,2013-02-19 10:32:00,
2013-02-19 05:37:00,42.4,26.0,29.62,South,180,12.7,12.7,52,0.00,CLR,,0.00,WeatherDisplay:10.37,2013-02-19 10:37:00,
2013-02-19 05:42:00,42.4,26.0,29.62,East,90,15.0,15.0,52,0.00,CLR,,0.00,WeatherDisplay:10.37,2013-02-19 10:42:00,
2013-02-19 05:47:00,42.6,25.7,29.62,South,180,13.8,13.8,51,0.00,CLR,,0.00,WeatherDisplay:10.37,2013-02-19 10:47:00,
2013-02-19 05:52:00,42.6,25.3,29.62,South,180,17.3,17.3,50,0.00,CLR,,0.00,WeatherDisplay:10.37,2013-02-19 10:52:00,
2013-02-19 05:57:00,42.6,25.3,29.62,South,180,10.4,10.4,50,0.00,CLR,,0.00,WeatherDisplay:10.37,2013-02-19 10:57:00,
2013-02-19 06:02:00,42.6,25.3,29.62,SSW,202,15.0,15.0,50,0.00,CLR,,0.00,WeatherDisplay:10.37,2013-02-19 11:02:00,
2013-02-19 06:07:00,42.8,25.4,29.62,South,180,15.0,15.0,50,0.00,CLR,,0.00,WeatherDisplay:10.37,2013-02-19 11:07:00,
2013-02-19 06:12:00,42.6,25.3,29.62,SSW,202,13.8,13.8,50,0.00,CLR,,0.00,WeatherDisplay:10.37,2013-02-19 11:12:00,
2013-02-19 06:17:00,42.6,25.3,29.62,South,180,17.3,17.3,50,0.00,CLR,,0.00,WeatherDisplay:10.37,2013-02-19 11:17:00,
2013-02-19 06:22:00,42.8,25.4,29.62,South,180,13.8,13.8,50,0.00,CLR,,0.00,WeatherDisplay:10.37,2013-02-19 11:22:00,
2013-02-19 06:27:00,42.8,25.4,29.62,SW,225,10.4,10.4,50,0.00,CLR,,0.00,WeatherDisplay:10.37,2013-02-19 11:27:00,
2013-02-19 06:32:00,42.6,25.7,29.62,SSW,202,10.4,10.4,51,0.00,CLR,,0.00,WeatherDisplay:10.37,2013-02-19 11:32:00,
2013-02-19 06:37:00,42.6,25.7,29.62,SSW,202,13.8,13.8,51,0.00,CLR,,0.00,WeatherDisplay:10.37,2013-02-19 11:37:00,
2013-02-19 06:42:00,42.4,25.6,29.62,South,180,9.2,9.2,51,0.00,CLR,,0.00,WeatherDisplay:10.37,2013-02-19 11:42:00,
2013-02-19 06:47:00,42.6,26.7,29.62,WSW,248,13.8,13.8,53,0.00,CLR,,0.00,WeatherDisplay:10.37,2013-02-19 11:47:00,
2013-02-19 06:52:00,37.6,22.0,29.65,NW,315,17.3,17.3,53,0.00,CLR,,0.00,WeatherDisplay:10.37,2013-02-19 11:52:00,
2013-02-19 06:57:00,36.1,23.2,29.65,West,270,15.0,15.0,59,0.00,CLR,,0.00,WeatherDisplay:10.37,2013-02-19 11:57:00,
2013-02-19 07:02:00,35.6,25.4,29.65,SW,225,12.8,12.8,66,0.00,CLR,,0.00,WeatherDisplay:10.37,2013-02-19 12:02:00,
2013-02-19 07:07:00,35.4,26.9,29.65,NW,315,10.0,10.0,71,0.00,CLR,,0.00,WeatherDisplay:10.37,2013-02-19 12:07:00,
2013-02-19 07:12:00,35.6,28.1,29.65,West,270,9.2,9.2,74,0.00,CLR,,0.00,WeatherDisplay:10.37,2013-02-19 12:12:00,
2013-02-19 07:17:00,36.0,29.4,29.65,West,270,11.5,11.5,77,0.00,CLR,,0.00,WeatherDisplay:10.37,2013-02-19 12:17:00,
2013-02-19 07:22:00,36.1,29.9,29.68,West,270,9.2,9.2,78,0.00,CLR,,0.00,WeatherDisplay:10.37,2013-02-19 12:22:00,
2013-02-19 07:27:00,36.3,30.7,29.68,West,270,11.5,11.5,80,0.00,CLR,,0.00,WeatherDisplay:10.37,2013-02-19 12:27:00,
2013-02-19 07:32:00,36.3,31.4,29.68,SW,225,8.1,8.1,82,0.00,CLR,,0.00,WeatherDisplay:10.37,2013-02-19 12:32:00,
2013-02-19 07:37:00,36.5,31.8,29.68,West,270,5.9,5.9,83,0.00,CLR,,0.00,WeatherDisplay:10.37,2013-02-19 12:37:00,
2013-02-19 07:42:00,36.7,32.3,29.68,West,270,6.9,6.9,84,0.00,CLR,,0.00,WeatherDisplay:10.37,2013-02-19 12:42:00,
2013-02-19 07:47:00,36.9,32.8,29.68,WSW,248,5.8,5.8,85,0.00,CLR,,0.00,WeatherDisplay:10.37,2013-02-19 12:47:00,
2013-02-19 07:52:00,36.9,33.4,29.68,West,270,9.2,9.2,87,0.00,CLR,,0.00,WeatherDisplay:10.37,2013-02-19 12:52:00,
2013-02-19 07:57:00,37.0,33.8,29.68,West,270,11.5,11.5,88,0.00,CLR,,0.00,WeatherDisplay:10.37,2013-02-19 12:57:00,
2013-02-19 08:02:00,36.9,33.9,29.68,West,270,9.2,9.2,89,0.00,CLR,,0.00,WeatherDisplay:10.37,2013-02-19 13:02:00,
2013-02-19 08:07:00,36.9,33.9,29.68,West,270,8.1,8.1,89,0.00,CLR,,0.00,WeatherDisplay:10.37,2013-02-19 13:07:00,
2013-02-19 08:12:00,37.0,34.1,29.68,West,270,12.8,12.8,89,0.00,CLR,,0.00,WeatherDisplay:10.37,2013-02-19 13:12:00,
2013-02-19 08:17:00,36.9,33.9,29.68,West,270,15.0,15.0,89,0.00,CLR,,0.00,WeatherDisplay:10.37,2013-02-19 13:17:00,
2013-02-19 08:22:00,36.9,33.9,29.71,West,270,9.2,9.2,89,0.00,CLR,,0.00,WeatherDisplay:10.37,2013-02-19 13:22:00,
2013-02-19 08:27:00,37.0,34.1,29.71,West,270,11.5,11.5,89,0.00,CLR,,0.00,WeatherDisplay:10.37,2013-02-19 13:27:00,
2013-02-19 08:32:00,37.0,34.1,29.71,West,270,9.2,9.2,89,0.00,CLR,,0.00,WeatherDisplay:10.37,2013-02-19 13:32:00,
2013-02-19 08:37:00,36.0,32.8,29.71,West,270,13.8,13.8,88,0.00,CLR,,0.00,WeatherDisplay:10.37,2013-02-19 13:37:00,
2013-02-19 08:42:00,35.4,31.1,29.71,West,270,8.1,8.1,84,0.00,CLR,,0.00,WeatherDisplay:10.37,2013-02-19 13:42:00,
2013-02-19 08:48:00,35.1,29.5,29.71,WSW,248,12.8,12.8,80,0.00,CLR,,0.00,WeatherDisplay:10.37,2013-02-19 13:48:00,
2013-02-19 08:53:00,34.3,26.9,29.71,WSW,248,15.0,15.0,74,0.00,CLR,,0.00,WeatherDisplay:10.37,2013-02-19 13:53:00,
2013-02-19 08:58:00,34.3,26.6,29.71,West,270,9.7,9.7,73,0.00,CLR,,0.00,WeatherDisplay:10.37,2013-02-19 13:58:00,
2013-02-19 09:03:00,34.3,26.2,29.71,SW,225,8.1,8.1,72,0.00,CLR,,0.00,WeatherDisplay:10.37,2013-02-19 14:03:00,
2013-02-19 09:08:00,34.0,25.9,29.71,West,270,11.5,11.5,72,0.00,CLR,,0.00,WeatherDisplay:10.37,2013-02-19 14:08:00,
2013-02-19 09:13:00,33.8,24.7,29.71,West,270,12.7,12.7,69,0.00,CLR,,0.00,WeatherDisplay:10.37,2013-02-19 14:13:00,
2013-02-19 09:18:00,33.6,23.5,29.71,SW,225,9.2,9.2,66,0.00,CLR,,0.00,WeatherDisplay:10.37,2013-02-19 14:18:00,
2013-02-19 09:23:00,33.1,21.1,29.71,SW,225,11.5,11.5,61,0.00,CLR,,0.00,WeatherDisplay:10.37,2013-02-19 14:23:00,
2013-02-19 09:28:00,32.5,17.7,29.71,NW,315,16.3,16.3,54,0.00,CLR,,0.00,WeatherDisplay:10.37,2013-02-19 14:28:00,
2013-02-19 09:33:00,32.0,14.5,29.71,West,270,15.0,15.0,48,0.00,CLR,,0.00,WeatherDisplay:10.37,2013-02-19 14:33:00,
2013-02-19 09:38:00,32.0,15.4,29.74,West,270,18.4,18.4,50,0.00,CLR,,0.00,WeatherDisplay:10.37,2013-02-19 14:38:00,
2013-02-19 09:43:00,31.3,14.8,29.74,West,270,17.3,17.3,50,0.00,CLR,,0.00,WeatherDisplay:10.37,2013-02-19 14:43:00,
2013-02-19 09:48:00,30.9,14.4,29.74,West,270,17.3,17.3,50,0.00,CLR,,0.00,WeatherDisplay:10.37,2013-02-19 14:48:00,
2013-02-19 09:53:00,30.4,12.5,29.74,West,270,17.3,17.3,47,0.00,CLR,,0.00,WeatherDisplay:10.37,2013-02-19 14:53:00,
2013-02-19 09:58:00,30.2,11.4,29.74,West,270,15.0,15.0,45,0.00,CLR,,0.00,WeatherDisplay:10.37,2013-02-19 14:58:00,
2013-02-19 10:03:00,30.2,11.9,29.74,West,270,13.8,13.8,46,0.00,CLR,,0.00,WeatherDisplay:10.37,2013-02-19 15:03:00,
2013-02-19 10:08:00,29.8,11.1,29.74,West,270,16.1,16.1,45,0.00,CLR,,0.00,WeatherDisplay:10.37,2013-02-19 15:08:00,
2013-02-19 10:13:00,29.8,11.1,29.74,West,270,17.3,17.3,45,0.00,CLR,,0.00,WeatherDisplay:10.37,2013-02-19 15:13:00,
2013-02-19 10:18:00,30.0,10.2,29.74,West,270,13.8,13.8,43,0.00,CLR,,0.00,WeatherDisplay:10.37,2013-02-19 15:18:00,
2013-02-19 10:23:00,30.2,10.4,29.74,West,270,11.5,11.5,43,0.00,CLR,,0.00,WeatherDisplay:10.37,2013-02-19 15:23:00,
2013-02-19 10:28:00,30.2,9.8,29.74,West,270,17.3,17.3,42,0.00,CLR,,0.00,WeatherDisplay:10.37,2013-02-19 15:28:00,
2013-02-19 10:33:00,30.2,9.8,29.74,West,270,11.5,11.5,42,0.00,CLR,,0.00,WeatherDisplay:10.37,2013-02-19 15:33:00,
2013-02-19 10:38:00,29.8,9.5,29.74,West,270,17.3,17.3,42,0.00,CLR,,0.00,WeatherDisplay:10.37,2013-02-19 15:38:00,
2013-02-19 10:43:00,29.8,9.5,29.74,West,270,15.0,15.0,42,0.00,CLR,,0.00,WeatherDisplay:10.37,2013-02-19 15:43:00,
2013-02-19 10:48:00,29.8,9.5,29.74,West,270,18.4,18.4,42,0.00,CLR,,0.00,WeatherDisplay:10.37,2013-02-19 15:48:00,
2013-02-19 10:53:00,29.7,9.3,29.74,West,270,13.8,13.8,42,0.00,CLR,,0.00,WeatherDisplay:10.37,2013-02-19 15:53:00,
2013-02-19 10:58:00,29.5,9.2,29.74,West,270,15.0,15.0,42,0.00,CLR,,0.00,WeatherDisplay:10.37,2013-02-19 15:58:00,
2013-02-19 11:03:00,29.5,9.7,29.74,West,270,9.2,9.2,43,0.00,CLR,,0.00,WeatherDisplay:10.37,2013-02-19 16:03:00,
2013-02-19 11:08:00,29.7,9.9,29.77,West,270,13.8,13.8,43,0.00,CLR,,0.00,WeatherDisplay:10.37,2013-02-19 16:08:00,
2013-02-19 11:13:00,29.5,9.7,29.77,West,270,15.0,15.0,43,0.00,CLR,,0.00,WeatherDisplay:10.37,2013-02-19 16:13:00,
2013-02-19 11:18:00,29.7,9.9,29.77,West,270,15.0,15.0,43,0.00,CLR,,0.00,WeatherDisplay:10.37,2013-02-19 16:18:00,
2013-02-19 11:23:00,29.7,10.4,29.74,West,270,10.5,10.5,44,0.00,CLR,,0.00,WeatherDisplay:10.37,2013-02-19 16:23:00,
2013-02-19 11:28:00,29.7,10.4,29.74,West,270,9.2,9.2,44,0.00,CLR,,0.00,WeatherDisplay:10.37,2013-02-19 16:28:00,
2013-02-19 11:33:00,29.7,9.9,29.74,West,270,11.5,11.5,43,0.00,CLR,,0.00,WeatherDisplay:10.37,2013-02-19 16:33:00,
2013-02-19 11:38:00,29.5,9.7,29.74,West,270,17.3,17.3,43,0.00,CLR,,0.00,WeatherDisplay:10.37,2013-02-19 16:38:00,
2013-02-19 11:43:00,29.5,9.7,29.74,West,270,17.3,17.3,43,0.00,CLR,,0.00,WeatherDisplay:10.37,2013-02-19 16:43:00,
2013-02-19 11:48:00,29.5,9.7,29.74,West,270,12.7,12.7,43,0.00,CLR,,0.00,WeatherDisplay:10.37,2013-02-19 16:48:00,
2013-02-19 11:53:00,29.5,9.2,29.77,West,270,13.8,13.8,42,0.00,CLR,,0.00,WeatherDisplay:10.37,2013-02-19 16:53:00,
2013-02-19 11:58:00,29.5,9.7,29.77,West,270,10.4,10.4,43,0.00,CLR,,0.00,WeatherDisplay:10.37,2013-02-19 16:58:00,
2013-02-19 12:03:00,29.5,10.2,29.77,West,270,10.4,10.4,44,0.00,CLR,,0.00,WeatherDisplay:10.37,2013-02-19 17:03:00,
2013-02-19 12:08:00,29.5,9.7,29.77,West,270,15.0,15.0,43,0.00,CLR,,0.00,WeatherDisplay:10.37,2013-02-19 17:08:00,
2013-02-19 12:13:00,29.5,10.2,29.77,West,270,16.1,16.1,44,0.00,CLR,,0.00,WeatherDisplay:10.37,2013-02-19 17:13:00,
2013-02-19 12:18:00,29.5,10.2,29.77,West,270,10.9,10.9,44,0.00,CLR,,0.00,WeatherDisplay:10.37,2013-02-19 17:18:00,
2013-02-19 12:23:00,28.9,10.2,29.77,West,270,16.3,16.3,45,0.00,CLR,,0.00,WeatherDisplay:10.37,2013-02-19 17:23:00,
2013-02-19 12:28:00,28.6,9.4,29.77,West,270,17.5,17.5,44,0.00,CLR,,0.00,WeatherDisplay:10.37,2013-02-19 17:28:00,
2013-02-19 12:33:00,28.0,8.9,29.77,WNW,292,19.2,19.2,44,0.00,CLR,,0.00,WeatherDisplay:10.37,2013-02-19 17:33:00,
2013-02-19 12:38:00,28.0,8.9,29.77,WNW,292,13.8,13.8,44,0.00,CLR,,0.00,WeatherDisplay:10.37,2013-02-19 17:38:00,
2013-02-19 12:43:00,28.0,9.4,29.77,WNW,292,9.2,9.2,45,0.00,CLR,,0.00,WeatherDisplay:10.37,2013-02-19 17:43:00,
2013-02-19 12:48:00,28.0,9.4,29.77,West,270,10.5,10.5,45,0.00,CLR,,0.00,WeatherDisplay:10.37,2013-02-19 17:48:00,
2013-02-19 12:53:00,27.9,9.2,29.77,WNW,292,12.7,12.7,45,0.00,CLR,,0.00,WeatherDisplay:10.37,2013-02-19 17:53:00,
2013-02-19 12:58:00,27.9,9.2,29.77,West,270,8.1,8.1,45,0.00,CLR,,0.00,WeatherDisplay:10.37,2013-02-19 17:58:00,
2013-02-19 13:03:00,27.9,9.2,29.77,West,270,10.4,10.4,45,0.00,CLR,,0.00,WeatherDisplay:10.37,2013-02-19 18:03:00,
2013-02-19 13:08:00,27.5,8.4,29.77,WNW,292,16.3,16.3,44,0.00,CLR,,0.00,WeatherDisplay:10.37,2013-02-19 18:08:00,
2013-02-19 13:14:00,27.3,7.7,29.77,West,270,15.0,15.0,43,0.00,CLR,,0.00,WeatherDisplay:10.37,2013-02-19 18:14:00,
2013-02-19 13:18:00,27.3,7.7,29.77,West,270,12.7,12.7,43,0.00,CLR,,0.00,WeatherDisplay:10.37,2013-02-19 18:18:00,
2013-02-19 13:24:00,27.1,7.6,29.77,WNW,292,13.8,13.8,43,0.00,CLR,,0.00,WeatherDisplay:10.37,2013-02-19 18:24:00,
2013-02-19 13:29:00,27.1,8.1,29.77,West,270,9.2,9.2,44,0.00,CLR,,0.00,WeatherDisplay:10.37,2013-02-19 18:29:00,
2013-02-19 13:34:00,27.3,8.2,29.77,West,270,12.7,12.7,44,0.00,CLR,,0.00,WeatherDisplay:10.37,2013-02-19 18:34:00,
2013-02-19 13:39:00,27.5,8.4,29.77,SW,225,9.7,9.7,44,0.00,CLR,,0.00,WeatherDisplay:10.37,2013-02-19 18:39:00,
2013-02-19 13:44:00,27.5,8.4,29.77,West,270,11.5,11.5,44,0.00,CLR,,0.00,WeatherDisplay:10.37,2013-02-19 18:44:00,
2013-02-19 13:49:00,27.9,8.7,29.77,West,270,9.2,9.2,44,0.00,CLR,,0.00,WeatherDisplay:10.37,2013-02-19 18:49:00,
2013-02-19 13:54:00,27.9,8.7,29.77,West,270,12.7,12.7,44,0.00,CLR,,0.00,WeatherDisplay:10.37,2013-02-19 18:54:00,
2013-02-19 13:59:00,27.9,8.2,29.77,WSW,248,11.5,11.5,43,0.00,CLR,,0.00,WeatherDisplay:10.37,2013-02-19 18:59:00,
2013-02-19 14:04:00,27.9,8.7,29.77,West,270,15.4,15.4,44,0.00,CLR,,0.00,WeatherDisplay:10.37,2013-02-19 19:04:00,
2013-02-19 14:09:00,27.7,9.1,29.77,West,270,15.0,15.0,45,0.00,CLR,,0.00,WeatherDisplay:10.37,2013-02-19 19:09:00,
2013-02-19 14:14:00,27.7,9.1,29.77,West,270,15.0,15.0,45,0.00,CLR,,0.00,WeatherDisplay:10.37,2013-02-19 19:14:00,
2013-02-19 14:19:00,27.9,8.2,29.77,WSW,248,18.4,18.4,43,0.00,CLR,,0.00,WeatherDisplay:10.37,2013-02-19 19:19:00,
2013-02-19 14:24:00,28.0,7.3,29.77,West,270,17.3,17.3,41,0.00,CLR,,0.00,WeatherDisplay:10.37,2013-02-19 19:24:00,
2013-02-19 14:29:00,27.7,3.5,29.77,West,270,21.9,21.9,35,0.00,CLR,,0.00,WeatherDisplay:10.37,2013-02-19 19:29:00,
2013-02-19 14:34:00,27.3,2.6,29.77,WNW,292,18.4,18.4,34,0.00,CLR,,0.00,WeatherDisplay:10.37,2013-02-19 19:34:00,
2013-02-19 14:39:00,27.3,2.6,29.77,West,270,17.3,17.3,34,0.00,CLR,,0.00,WeatherDisplay:10.37,2013-02-19 19:39:00,
2013-02-19 14:44:00,27.3,2.6,29.77,West,270,24.2,24.2,34,0.00,CLR,,0.00,WeatherDisplay:10.37,2013-02-19 19:44:00,
2013-02-19 14:49:00,27.3,2.6,29.80,West,270,15.0,15.0,34,0.00,CLR,,0.00,WeatherDisplay:10.37,2013-02-19 19:49:00,
2013-02-19 14:54:00,27.3,2.0,29.80,West,270,15.0,15.0,33,0.00,CLR,,0.00,WeatherDisplay:10.37,2013-02-19 19:54:00,
2013-02-19 14:59:00,27.0,1.6,29.80,WNW,292,18.4,18.4,33,0.00,CLR,,0.00,WeatherDisplay:10.37,2013-02-19 19:59:00,
2013-02-19 15:04:00,27.1,2.4,29.80,WSW,248,15.0,15.0,34,0.00,CLR,,0.00,WeatherDisplay:10.37,2013-02-19 20:04:00,
2013-02-19 15:09:00,27.3,2.6,29.80,West,270,11.5,11.5,34,0.00,CLR,,0.00,WeatherDisplay:10.37,2013-02-19 20:09:00,
2013-02-19 15:14:00,27.3,2.6,29.80,West,270,18.4,18.4,34,0.00,CLR,,0.00,WeatherDisplay:10.37,2013-02-19 20:14:00,
2013-02-19 15:19:00,27.5,3.4,29.80,West,270,10.5,10.5,35,0.00,CLR,,0.00,WeatherDisplay:10.37,2013-02-19 20:19:00,
2013-02-19 15:24:00,27.3,3.2,29.80,West,270,19.7,19.7,35,0.00,CLR,,0.00,WeatherDisplay:10.37,2013-02-19 20:24:00,
2013-02-19 15:29:00,27.3,3.2,29.80,West,270,9.2,9.2,35,0.00,CLR,,0.00,WeatherDisplay:10.37,2013-02-19 20:29:00,
2013-02-19 15:34:00,27.3,3.8,29.80,West,270,13.8,13.8,36,0.00,CLR,,0.00,WeatherDisplay:10.37,2013-02-19 20:34:00,
2013-02-19 15:39:00,27.3,3.2,29.80,West,270,11.5,11.5,35,0.00,CLR,,0.00,WeatherDisplay:10.37,2013-02-19 20:39:00,
2013-02-19 15:44:00,27.1,3.1,29.80,West,270,15.0,15.0,35,0.00,CLR,,0.00,WeatherDisplay:10.37,2013-02-19 20:44:00,
2013-02-19 15:49:00,27.1,3.7,29.80,West,270,18.4,18.4,36,0.00,CLR,,0.00,WeatherDisplay:10.37,2013-02-19 20:49:00,
2013-02-19 15:54:00,27.3,4.4,29.80,SW,225,11.5,11.5,37,0.00,CLR,,0.00,WeatherDisplay:10.37,2013-02-19 20:54:00,
2013-02-19 15:59:00,27.1,3.7,29.80,West,270,15.0,15.0,36,0.00,CLR,,0.00,WeatherDisplay:10.37,2013-02-19 20:59:00,
2013-02-19 16:04:00,27.3,4.4,29.80,West,270,10.4,10.4,37,0.00,CLR,,0.00,WeatherDisplay:10.37,2013-02-19 21:04:00,
2013-02-19 16:09:00,27.0,4.7,29.80,West,270,12.8,12.8,38,0.00,CLR,,0.00,WeatherDisplay:10.37,2013-02-19 21:09:00,
2013-02-19 16:14:00,27.0,5.8,29.80,WSW,248,18.4,18.4,40,0.00,CLR,,0.00,WeatherDisplay:10.37,2013-02-19 21:14:00,
2013-02-19 16:19:00,26.8,6.2,29.80,West,270,12.7,12.7,41,0.00,CLR,,0.00,WeatherDisplay:10.37,2013-02-19 21:19:00,
2013-02-19 16:24:00,26.2,6.7,29.80,WSW,248,17.3,17.3,43,0.00,CLR,,0.00,WeatherDisplay:10.37,2013-02-19 21:24:00,
2013-02-19 16:29:00,26.1,8.1,29.80,West,270,24.2,24.2,46,0.00,CLR,,0.00,WeatherDisplay:10.37,2013-02-19 21:29:00,
2013-02-19 16:34:00,25.9,6.9,29.83,NW,315,17.3,17.3,44,0.00,CLR,,0.00,WeatherDisplay:10.37,2013-02-19 21:34:00,
2013-02-19 16:39:00,25.9,1.9,29.83,SW,225,24.2,24.2,35,0.00,CLR,,0.00,WeatherDisplay:10.37,2013-02-19 21:39:00,
2013-02-19 16:44:00,26.1,0.8,29.83,West,270,20.7,20.7,33,0.00,CLR,,0.00,WeatherDisplay:10.37,2013-02-19 21:44:00,
2013-02-19 16:49:00,26.1,0.2,29.83,NW,315,17.3,17.3,32,0.00,CLR,,0.00,WeatherDisplay:10.37,2013-02-19 21:49:00,
2013-02-19 16:54:00,25.7,-0.1,29.83,West,270,23.0,23.0,32,0.00,CLR,,0.00,WeatherDisplay:10.37,2013-02-19 21:54:00,
2013-02-19 16:59:00,25.5,0.4,29.83,West,270,17.3,17.3,33,0.00,CLR,,0.00,WeatherDisplay:10.37,2013-02-19 21:59:00,
2013-02-19 17:04:00,25.3,-0.5,29.83,West,270,23.0,23.0,32,0.00,CLR,,0.00,WeatherDisplay:10.37,2013-02-19 22:04:00,
2013-02-19 17:09:00,25.3,0.2,29.83,WNW,292,15.0,15.0,33,0.00,CLR,,0.00,WeatherDisplay:10.37,2013-02-19 22:09:00,
2013-02-19 17:14:00,25.2,0.0,29.83,WSW,248,20.7,20.7,33,0.00,CLR,,0.00,WeatherDisplay:10.37,2013-02-19 22:14:00,
2013-02-19 17:19:00,25.2,0.0,29.85,West,270,17.3,17.3,33,0.00,CLR,,0.00,WeatherDisplay:10.37,2013-02-19 22:19:00,
2013-02-19 17:24:00,25.2,0.7,29.85,West,270,15.0,15.0,34,0.00,CLR,,0.00,WeatherDisplay:10.37,2013-02-19 22:24:00,
2013-02-19 17:29:00,25.2,0.7,29.85,SW,225,13.8,13.8,34,0.00,CLR,,0.00,WeatherDisplay:10.37,2013-02-19 22:29:00,
2013-02-19 17:34:00,24.8,1.6,29.85,West,270,19.6,19.6,36,0.00,CLR,,0.00,WeatherDisplay:10.37,2013-02-19 22:34:00,
2013-02-19 17:39:00,25.0,0.5,29.85,West,270,24.2,24.2,34,0.00,CLR,,0.00,WeatherDisplay:10.37,2013-02-19 22:39:00,
2013-02-19 17:44:00,25.0,1.1,29.85,WNW,292,17.3,17.3,35,0.00,CLR,,0.00,WeatherDisplay:10.37,2013-02-19 22:44:00,
2013-02-19 17:49:00,25.0,1.1,29.88,NW,315,16.1,16.1,35,0.00,CLR,,0.00,WeatherDisplay:10.37,2013-02-19 22:49:00,
2013-02-19 17:54:00,25.0,0.5,29.88,West,270,18.4,18.4,34,0.00,CLR,,0.00,WeatherDisplay:10.37,2013-02-19 22:54:00,
2013-02-19 17:59:00,25.0,1.1,29.88,West,270,15.0,15.0,35,0.00,CLR,,0.00,WeatherDisplay:10.37,2013-02-19 22:59:00,
2013-02-19 18:04:00,25.0,1.1,29.88,WSW,248,17.0,17.0,35,0.00,CLR,,0.00,WeatherDisplay:10.37,2013-02-19 23:04:00,
2013-02-19 18:09:00,25.2,0.7,29.88,West,270,23.0,23.0,34,0.00,CLR,,0.00,WeatherDisplay:10.37,2013-02-19 23:09:00,
2013-02-19 18:14:00,25.0,1.1,29.88,NW,315,19.6,19.6,35,0.00,CLR,,0.00,WeatherDisplay:10.37,2013-02-19 23:14:00,
2013-02-19 18:19:00,25.0,1.7,29.88,SW,225,18.4,18.4,36,0.00,CLR,,0.00,WeatherDisplay:10.37,2013-02-19 23:19:00,
2013-02-19 18:24:00,25.0,2.3,29.88,West,270,15.0,15.0,37,0.00,CLR,,0.00,WeatherDisplay:10.37,2013-02-19 23:24:00,
2013-02-19 18:30:00,25.0,4.6,29.88,West,270,15.0,15.0,41,0.00,CLR,,0.00,WeatherDisplay:10.37,2013-02-19 23:30:00,
2013-02-19 18:35:00,24.8,6.4,29.88,WNW,292,18.4,18.4,45,0.00,CLR,,0.00,WeatherDisplay:10.37,2013-02-19 23:35:00,
2013-02-19 18:40:00,24.4,7.5,29.88,West,270,17.3,17.3,48,0.00,CLR,,0.00,WeatherDisplay:10.37,2013-02-19 23:40:00,
2013-02-19 18:45:00,24.4,6.6,29.88,West,270,15.9,15.9,46,0.00,CLR,,0.00,WeatherDisplay:10.37,2013-02-19 23:45:00,
2013-02-19 18:50:00,24.3,9.6,29.88,NW,315,32.2,32.2,53,0.00,CLR,,0.00,WeatherDisplay:10.37,2013-02-19 23:50:00,
2013-02-19 18:55:00,23.5,5.8,29.88,WNW,292,20.7,20.7,46,0.00,CLR,,0.00,WeatherDisplay:10.37,2013-02-19 23:55:00,
2013-02-19 19:00:00,23.7,4.5,29.88,West,280,14.0,32.0,43,0.00,CLR,,0.00,WeatherDisplay:10.37,2013-02-20 00:00:00,
2013-02-19 19:05:00,23.9,4.6,29.91,West,270,11.5,11.5,43,0.00,CLR,,0.00,WeatherDisplay:10.37,2013-02-20 00:05:00,
2013-02-19 19:10:00,23.9,2.5,29.91,WSW,248,17.3,17.3,39,0.00,CLR,,0.00,WeatherDisplay:10.37,2013-02-20 00:10:00,
2013-02-19 19:15:00,23.7,0.6,29.91,West,270,17.3,17.3,36,0.00,CLR,,0.00,WeatherDisplay:10.37,2013-02-20 00:15:00,
2013-02-19 19:20:00,23.5,-0.2,29.91,West,270,22.3,22.3,35,0.00,CLR,,0.00,WeatherDisplay:10.37,2013-02-20 00:20:00,
2013-02-19 19:25:00,23.4,-0.9,29.91,NW,315,21.9,21.9,34,0.00,CLR,,0.00,WeatherDisplay:10.37,2013-02-20 00:25:00,
2013-02-19 19:30:00,23.2,-0.5,29.91,West,279,10.0,22.0,35,0.00,CLR,,0.00,WeatherDisplay:10.37,2013-02-20 00:30:00,
2013-02-19 19:35:00,23.0,-0.6,29.91,West,270,15.0,15.0,35,0.00,CLR,,0.00,WeatherDisplay:10.37,2013-02-20 00:35:00,
2013-02-19 19:40:00,22.8,-0.2,29.91,NW,315,15.0,15.0,36,0.00,CLR,,0.00,WeatherDisplay:10.37,2013-02-20 00:40:00,
2013-02-19 19:45:00,22.8,-0.2,29.91,WSW,248,15.0,15.0,36,0.00,CLR,,0.00,WeatherDisplay:10.37,2013-02-20 00:45:00,
2013-02-19 19:50:00,22.8,-0.2,29.91,West,279,10.0,24.0,36,0.00,CLR,,0.00,WeatherDisplay:10.37,2013-02-20 00:50:00,
2013-02-19 19:55:00,22.6,0.2,29.91,West,270,15.0,15.0,37,0.00,CLR,,0.00,WeatherDisplay:10.37,2013-02-20 00:55:00,
2013-02-19 20:00:00,22.6,0.2,29.91,West,275,10.0,17.0,37,0.00,CLR,,0.00,WeatherDisplay:10.37,2013-02-20 01:00:00,
2013-02-19 20:05:00,22.6,0.2,29.91,WSW,248,10.4,10.4,37,0.00,CLR,,0.00,WeatherDisplay:10.37,2013-02-20 01:05:00,
2013-02-19 20:10:00,22.6,0.2,29.91,NW,315,15.0,15.0,37,0.00,CLR,,0.00,WeatherDisplay:10.37,2013-02-20 01:10:00,
2013-02-19 20:15:00,22.6,0.8,29.91,WNW,292,15.0,15.0,38,0.00,CLR,,0.00,WeatherDisplay:10.37,2013-02-20 01:15:00,
2013-02-19 20:20:00,22.6,0.8,29.91,West,281,7.0,17.0,38,0.00,CLR,,0.00,WeatherDisplay:10.37,2013-02-20 01:20:00,
2013-02-19 20:25:00,22.5,1.7,29.91,WNW,292,13.8,13.8,40,0.00,CLR,,0.00,WeatherDisplay:10.37,2013-02-20 01:25:00,
2013-02-19 20:30:00,22.5,2.3,29.91,West,270,12.7,12.7,41,0.00,CLR,,0.00,WeatherDisplay:10.37,2013-02-20 01:30:00,
2013-02-19 20:35:00,22.3,2.6,29.91,West,270,10.4,10.5,42,0.00,CLR,,0.00,WeatherDisplay:10.37,2013-02-20 01:35:00,
2013-02-19 20:40:00,22.1,3.0,29.91,NW,315,20.7,20.7,43,0.00,CLR,,0.00,WeatherDisplay:10.37,2013-02-20 01:40:00,
2013-02-19 20:45:00,21.9,3.3,29.91,West,270,12.7,12.7,44,0.00,CLR,,0.00,WeatherDisplay:10.37,2013-02-20 01:45:00,
2013-02-19 20:50:00,21.9,3.3,29.94,West,270,15.0,15.0,44,0.00,CLR,,0.00,WeatherDisplay:10.37,2013-02-20 01:50:00,
2013-02-19 20:55:00,21.9,3.3,29.94,West,270,9.2,9.2,44,0.00,CLR,,0.00,WeatherDisplay:10.37,2013-02-20 01:55:00,
2013-02-19 21:00:00,21.9,1.2,29.94,WNW,292,17.3,17.3,40,0.00,CLR,,0.00,WeatherDisplay:10.37,2013-02-20 02:00:00,
2013-02-19 21:05:00,21.9,0.2,29.91,WNW,292,19.6,19.6,38,0.00,CLR,,0.00,WeatherDisplay:10.37,2013-02-20 02:05:00,
2013-02-19 21:10:00,21.9,0.2,29.91,West,270,21.5,21.5,38,0.00,CLR,,0.00,WeatherDisplay:10.37,2013-02-20 02:10:00,
2013-02-19 21:15:00,21.9,-0.4,29.91,NW,315,16.1,16.1,37,0.00,CLR,,0.00,WeatherDisplay:10.37,2013-02-20 02:15:00,
2013-02-19 21:20:00,21.9,-1.0,29.94,NW,315,17.3,17.3,36,0.00,CLR,,0.00,WeatherDisplay:10.37,2013-02-20 02:20:00,
2013-02-19 21:25:00,21.7,-1.2,29.94,NW,315,15.4,15.4,36,0.00,CLR,,0.00,WeatherDisplay:10.37,2013-02-20 02:25:00,
2013-02-19 21:30:00,21.7,-1.2,29.94,West,270,17.3,17.3,36,0.00,CLR,,0.00,WeatherDisplay:10.37,2013-02-20 02:30:00,
2013-02-19 21:35:00,21.6,-0.7,29.94,WNW,292,15.0,15.0,37,0.00,CLR,,0.00,WeatherDisplay:10.37,2013-02-20 02:35:00,
2013-02-19 21:40:00,21.4,0.2,29.94,West,270,21.9,21.9,39,0.00,CLR,,0.00,WeatherDisplay:10.37,2013-02-20 02:40:00,
2013-02-19 21:45:00,21.4,-0.3,29.94,SSW,202,21.9,21.9,38,0.00,CLR,,0.00,WeatherDisplay:10.37,2013-02-20 02:45:00,
2013-02-19 21:50:00,21.4,-2.1,29.94,SW,225,13.2,13.2,35,0.00,CLR,,0.00,WeatherDisplay:10.37,2013-02-20 02:50:00,
2013-02-19 21:55:00,21.6,-1.9,29.94,West,270,12.7,12.7,35,0.00,CLR,,0.00,WeatherDisplay:10.37,2013-02-20 02:55:00,
2013-02-19 22:00:00,21.4,-2.1,29.94,West,270,15.0,15.0,35,0.00,CLR,,0.00,WeatherDisplay:10.37,2013-02-20 03:00:00,
2013-02-19 22:05:00,21.2,-1.6,29.94,West,270,15.4,15.4,36,0.00,CLR,,0.00,WeatherDisplay:10.37,2013-02-20 03:05:00,
2013-02-19 22:10:00,21.2,-1.6,29.94,West,270,17.3,17.3,36,0.00,CLR,,0.00,WeatherDisplay:10.37,2013-02-20 03:10:00,
2013-02-19 22:15:00,21.2,-2.2,29.94,West,270,20.7,20.7,35,0.00,CLR,,0.00,WeatherDisplay:10.37,2013-02-20 03:15:00,
2013-02-19 22:20:00,21.2,-2.2,29.94,West,270,20.7,20.7,35,0.00,CLR,,0.00,WeatherDisplay:10.37,2013-02-20 03:20:00,
2013-02-19 22:25:00,21.0,-2.4,29.94,NW,315,25.3,25.3,35,0.00,CLR,,0.00,WeatherDisplay:10.37,2013-02-20 03:25:00,
2013-02-19 22:30:00,21.0,-3.0,29.94,WNW,292,24.2,24.2,34,0.00,CLR,,0.00,WeatherDisplay:10.37,2013-02-20 03:30:00,
2013-02-19 22:35:00,21.0,-3.0,30.00,NW,315,18.4,18.4,34,0.00,CLR,,0.00,WeatherDisplay:10.37,2013-02-20 03:35:00,
2013-02-19 22:40:00,21.0,-3.0,30.00,WNW,292,18.4,18.4,34,0.00,CLR,,0.00,WeatherDisplay:10.37,2013-02-20 03:40:00,
2013-02-19 22:45:00,21.0,-3.0,30.00,NW,315,15.0,15.0,34,0.00,CLR,,0.00,WeatherDisplay:10.37,2013-02-20 03:45:00,
2013-02-19 22:50:00,21.0,-3.0,29.94,NW,315,25.3,25.3,34,0.00,CLR,,0.00,WeatherDisplay:10.37,2013-02-20 03:50:00,
2013-02-19 22:55:00,20.8,-2.6,29.94,NW,315,16.8,16.8,35,0.00,CLR,,0.00,WeatherDisplay:10.37,2013-02-20 03:55:00,
2013-02-19 23:00:00,20.7,-1.5,29.94,WNW,292,15.9,15.9,37,0.00,CLR,,0.00,WeatherDisplay:10.37,2013-02-20 04:00:00,
2013-02-19 23:05:00,20.5,-1.1,29.94,WNW,292,16.1,16.1,38,0.00,CLR,,0.00,WeatherDisplay:10.37,2013-02-20 04:05:00,
2013-02-19 23:10:00,20.5,-0.6,29.94,West,270,17.3,17.3,39,0.00,CLR,,0.00,WeatherDisplay:10.37,2013-02-20 04:10:00,
2013-02-19 23:15:00,20.3,-1.3,29.94,West,270,15.4,15.4,38,0.00,CLR,,0.00,WeatherDisplay:10.37,2013-02-20 04:15:00,
2013-02-19 23:20:00,20.3,-1.3,29.94,NW,315,11.5,11.5,38,0.00,CLR,,0.00,WeatherDisplay:10.37,2013-02-20 04:20:00,
2013-02-19 23:25:00,20.3,-1.3,29.94,West,270,17.3,17.3,38,0.00,CLR,,0.00,WeatherDisplay:10.37,2013-02-20 04:25:00,
2013-02-19 23:30:00,20.1,-0.9,29.94,West,270,16.1,16.1,39,0.00,CLR,,0.00,WeatherDisplay:10.37,2013-02-20 04:30:00,
2013-02-19 23:35:00,20.1,0.1,29.97,WNW,292,10.4,10.4,41,0.00,CLR,,0.00,WeatherDisplay:10.37,2013-02-20 04:35:00,
2013-02-19 23:40:00,19.9,1.0,29.97,NW,315,13.8,13.8,43,0.00,CLR,,0.00,WeatherDisplay:10.37,2013-02-20 04:40:00,
2013-02-19 23:45:00,19.9,1.5,29.97,West,270,10.4,10.4,44,0.00,CLR,,0.00,WeatherDisplay:10.37,2013-02-20 04:45:00,
2013-02-19 23:50:00,19.9,1.5,29.97,NW,315,13.8,13.8,44,0.00,CLR,,0.00,WeatherDisplay:10.37,2013-02-20 04:50:00,
2013-02-19 23:55:00,19.9,1.5,29.97,NW,315,11.5,11.5,44,0.00,CLR,,0.00,WeatherDisplay:10.37,2013-02-20 04:55:00,